Time;durP1;ratioP1;P1;durP2;ratioP2;P2;SDS_P1;SDS_P2;PMS_P1;PMS_P2;Temp;Humidity;BMP_temperature;BMP_pressure;BME280_temperature;BME280_humidity;BME280_pressure;Samples;Min_cycle;Max_cycle;Signal;HPM_P1;HPM_P2
2023/03/11 00:00:17;;;;;;;2.55;0.80;;;;;;;;;;5010706;28;20026;-80
2023/03/11 00:02:43;;;;;;;1.25;0.50;;;;;;;;;;5000603;28;20026;-79
2023/03/11 00:05:13;;;;;;;3.50;0.80;;;;;;;;;;5016262;28;20080;-79
2023/03/11 00:07:39;;;;;;;2.47;0.93;;;;;;;;;;5016531;28;20041;-79
2023/03/11 00:10:05;;;;;;;2.22;0.70;;;;;;;;;;5001460;28;20023;-79
2023/03/11 00:12:31;;;;;;;2.10;0.60;;;;;;;;;;5001884;28;20038;-78
2023/03/11 00:14:57;;;;;;;1.08;0.50;;;;;;;;;;5013016;28;20026;-79
2023/03/11 00:17:23;;;;;;;2.42;0.60;;;;;;;;;;5022958;28;20056;-78
2023/03/11 00:19:49;;;;;;;3.05;0.75;;;;;;;;;;5012370;28;20029;-78
2023/03/11 00:22:15;;;;;;;2.05;0.60;;;;;;;;;;5003960;28;20422;-79
2023/03/11 00:24:41;;;;;;;1.88;0.70;;;;;;;;;;5007242;28;20031;-80
2023/03/11 00:27:07;;;;;;;1.52;0.52;;;;;;;;;;5000700;28;20026;-79
2023/03/11 00:29:33;;;;;;;1.42;0.60;;;;;;;;;;5005367;28;20030;-80
2023/03/11 00:31:59;;;;;;;2.28;0.82;;;;;;;;;;5010991;28;20040;-78
2023/03/11 00:34:25;;;;;;;3.85;0.80;;;;;;;;;;5014705;28;20500;-79
2023/03/11 00:36:51;;;;;;;2.80;0.80;;;;;;;;;;5001437;28;20030;-78
2023/03/11 00:39:17;;;;;;;2.47;0.70;;;;;;;;;;5006948;28;20117;-79
2023/03/11 00:41:43;;;;;;;2.53;0.70;;;;;;;;;;5004491;28;20512;-79
2023/03/11 00:44:11;;;;;;;2.90;0.82;;;;;;;;;;5001588;28;20057;-79
2023/03/11 00:46:37;;;;;;;4.00;1.20;;;;;;;;;;5000321;28;20123;-80
2023/03/11 00:49:03;;;;;;;2.40;0.70;;;;;;;;;;5006119;28;20086;-80
2023/03/11 00:51:29;;;;;;;2.10;0.80;;;;;;;;;;5003483;28;20026;-80
2023/03/11 00:53:55;;;;;;;3.13;1.13;;;;;;;;;;4999449;28;20865;-81
2023/03/11 00:56:21;;;;;;;3.05;0.90;;;;;;;;;;5009336;28;20049;-80
2023/03/11 00:58:48;;;;;;;2.83;1.00;;;;;;;;;;5018945;28;20042;-81
2023/03/11 01:01:15;;;;;;;5.50;1.42;;;;;;;;;;5012174;28;20035;-79
2023/03/11 01:03:41;;;;;;;2.92;0.93;;;;;;;;;;5002977;28;20017;-80
2023/03/11 01:06:07;;;;;;;3.33;1.00;;;;;;;;;;5019614;28;20659;-79
2023/03/11 01:08:34;;;;;;;2.35;1.05;;;;;;;;;;5015430;28;20045;-79
2023/03/11 01:11:00;;;;;;;2.55;0.90;;;;;;;;;;5014184;28;20035;-80
2023/03/11 01:13:27;;;;;;;2.20;0.95;;;;;;;;;;5016549;28;20014;-80
2023/03/11 01:15:53;;;;;;;2.28;0.90;;;;;;;;;;5006655;28;20030;-79
2023/03/11 01:18:19;;;;;;;2.28;1.00;;;;;;;;;;5007488;28;20030;-79
2023/03/11 01:20:46;;;;;;;3.67;1.17;;;;;;;;;;5023634;28;20025;-79
2023/03/11 01:23:12;;;;;;;2.53;0.93;;;;;;;;;;5005988;28;20022;-79
2023/03/11 01:25:38;;;;;;;3.78;1.48;;;;;;;;;;5000422;28;20036;-80
2023/03/11 01:28:07;;;;;;;2.58;0.82;;;;;;;;;;5011536;28;20556;-79
2023/03/11 01:30:33;;;;;;;3.08;1.00;;;;;;;;;;5014676;28;20014;-80
2023/03/11 01:32:59;;;;;;;2.42;0.90;;;;;;;;;;4999744;28;20026;-79
2023/03/11 01:35:27;;;;;;;3.08;0.93;;;;;;;;;;4999896;28;20030;-79
2023/03/11 01:37:53;;;;;;;1.73;0.90;;;;;;;;;;5019400;28;20029;-79
2023/03/11 01:40:33;;;;;;;1.88;0.70;;;;;;;;;;5014662;28;20037;-80
2023/03/11 01:43:00;;;;;;;1.55;0.70;;;;;;;;;;5002314;28;20034;-79
2023/03/11 01:45:31;;;;;;;3.30;0.80;;;;;;;;;;5014518;28;20037;-78
2023/03/11 01:47:57;;;;;;;1.63;0.70;;;;;;;;;;5018451;28;20077;-79
2023/03/11 01:50:23;;;;;;;1.80;0.80;;;;;;;;;;5017442;28;20026;-79
2023/03/11 01:52:49;;;;;;;2.47;0.85;;;;;;;;;;4997149;28;20029;-80
2023/03/11 01:55:16;;;;;;;1.52;0.63;;;;;;;;;;5012411;28;20030;-80
2023/03/11 01:57:43;;;;;;;1.35;0.60;;;;;;;;;;5017380;28;20058;-79
2023/03/11 02:00:14;;;;;;;2.03;0.70;;;;;;;;;;5018319;28;20053;-80
2023/03/11 02:03:06;;;;;;;2.63;0.77;;;;;;;;;;5013197;28;20057;-80
2023/03/11 02:05:34;;;;;;;1.85;0.50;;;;;;;;;;5000224;28;20406;-81
2023/03/11 02:07:59;;;;;;;1.50;0.70;;;;;;;;;;5008263;28;20029;-80
2023/03/11 02:10:26;;;;;;;2.08;0.60;;;;;;;;;;5006776;28;20022;-80
2023/03/11 02:12:52;;;;;;;1.60;0.60;;;;;;;;;;5008965;28;20018;-79
2023/03/11 02:15:18;;;;;;;1.77;0.75;;;;;;;;;;5002102;28;20026;-80
2023/03/11 02:17:44;;;;;;;1.58;0.68;;;;;;;;;;4998657;28;20031;-80
2023/03/11 02:20:29;;;;;;;1.33;0.60;;;;;;;;;;5013941;28;20030;-79
2023/03/11 02:22:56;;;;;;;1.20;0.50;;;;;;;;;;5019761;28;20037;-79
2023/03/11 02:25:39;;;;;;;2.38;0.60;;;;;;;;;;5000986;28;20030;-79
2023/03/11 02:28:06;;;;;;;1.45;0.70;;;;;;;;;;4997301;28;20073;-80
2023/03/11 02:30:33;;;;;;;1.95;0.70;;;;;;;;;;5008093;28;20023;-80
2023/03/11 02:32:59;;;;;;;1.40;0.63;;;;;;;;;;5008989;28;20026;-79
2023/03/11 02:35:25;;;;;;;1.48;0.65;;;;;;;;;;5018477;28;20032;-80
2023/03/11 02:37:52;;;;;;;1.95;0.75;;;;;;;;;;5020956;28;20034;-79
2023/03/11 02:40:21;;;;;;;2.25;0.90;;;;;;;;;;5005044;28;20442;-80
2023/03/11 02:42:48;;;;;;;2.67;0.80;;;;;;;;;;5014139;28;20494;-80
2023/03/11 02:45:17;;;;;;;1.45;0.73;;;;;;;;;;5011592;28;20022;-81
2023/03/11 02:47:45;;;;;;;1.92;0.63;;;;;;;;;;5016950;28;20080;-80
2023/03/11 02:53:15;;;;;;;1.73;0.90;;;;;;;;;;4996159;28;20509;-80
2023/03/11 02:55:41;;;;;;;2.15;0.80;;;;;;;;;;5001006;28;20511;-80
2023/03/11 02:58:07;;;;;;;3.08;0.90;;;;;;;;;;4999415;28;20046;-80
2023/03/11 03:00:33;;;;;;;1.73;0.70;;;;;;;;;;5006622;28;20037;-79
2023/03/11 03:02:59;;;;;;;2.90;1.08;;;;;;;;;;5003450;28;20027;-80
2023/03/11 03:05:25;;;;;;;1.77;0.73;;;;;;;;;;5006395;28;20040;-80
2023/03/11 03:07:51;;;;;;;2.53;0.90;;;;;;;;;;5015986;28;20030;-79
2023/03/11 03:10:18;;;;;;;1.33;0.80;;;;;;;;;;5013956;28;20540;-80
2023/03/11 03:12:44;;;;;;;1.70;0.70;;;;;;;;;;4996818;28;20041;-78
2023/03/11 03:15:10;;;;;;;2.58;0.80;;;;;;;;;;5009654;28;20413;-80
2023/03/11 03:17:37;;;;;;;2.47;0.90;;;;;;;;;;4995209;28;20109;-79
2023/03/11 03:20:06;;;;;;;2.97;1.10;;;;;;;;;;4994343;28;20117;-80
2023/03/11 03:22:32;;;;;;;2.33;0.80;;;;;;;;;;4997927;28;20014;-80
2023/03/11 03:24:58;;;;;;;2.78;0.98;;;;;;;;;;4996052;28;20113;-79
2023/03/11 03:27:24;;;;;;;2.15;0.82;;;;;;;;;;4995053;28;20026;-79
2023/03/11 03:29:50;;;;;;;2.22;0.90;;;;;;;;;;5001754;28;20022;-79
2023/03/11 03:32:16;;;;;;;2.50;0.93;;;;;;;;;;5003962;28;20031;-78
2023/03/11 03:34:42;;;;;;;2.55;0.80;;;;;;;;;;4995429;28;20026;-80
2023/03/11 03:37:08;;;;;;;1.98;0.70;;;;;;;;;;4995739;28;20026;-79
2023/03/11 03:39:34;;;;;;;2.10;0.85;;;;;;;;;;5012652;28;20481;-79
2023/03/11 03:42:00;;;;;;;1.63;0.82;;;;;;;;;;5007828;28;20030;-81
2023/03/11 03:44:26;;;;;;;2.22;0.80;;;;;;;;;;5012126;28;20427;-81
2023/03/11 03:46:52;;;;;;;3.75;1.10;;;;;;;;;;4996017;28;20022;-80
2023/03/11 03:49:18;;;;;;;1.60;0.70;;;;;;;;;;4995906;28;20493;-79
2023/03/11 03:51:44;;;;;;;1.95;0.85;;;;;;;;;;5010755;28;20025;-80
2023/03/11 03:54:10;;;;;;;2.80;0.80;;;;;;;;;;5020390;28;20044;-77
2023/03/11 03:56:36;;;;;;;2.17;0.80;;;;;;;;;;5019419;28;20504;-79
2023/03/11 03:59:03;;;;;;;2.63;1.00;;;;;;;;;;5013116;28;20096;-80
2023/03/11 04:01:29;;;;;;;1.42;0.68;;;;;;;;;;5003886;28;20077;-78
2023/03/11 04:03:55;;;;;;;2.15;0.73;;;;;;;;;;5011769;28;20038;-78
2023/03/11 04:06:22;;;;;;;1.92;0.70;;;;;;;;;;5007291;28;20023;-79
2023/03/11 04:08:50;;;;;;;1.88;0.60;;;;;;;;;;5015834;28;20529;-78
2023/03/11 04:11:16;;;;;;;2.13;0.80;;;;;;;;;;5014522;28;20057;-78
2023/03/11 04:13:43;;;;;;;2.78;0.90;;;;;;;;;;5002017;28;20113;-78
2023/03/11 04:16:10;;;;;;;1.95;0.75;;;;;;;;;;4996738;28;20030;-79
2023/03/11 04:18:36;;;;;;;1.95;0.70;;;;;;;;;;4995613;28;20030;-78
2023/03/11 04:21:06;;;;;;;1.95;0.82;;;;;;;;;;5011374;28;20094;-78
2023/03/11 04:23:32;;;;;;;1.45;0.70;;;;;;;;;;5014563;28;21045;-79
2023/03/11 04:25:58;;;;;;;1.98;0.70;;;;;;;;;;5006170;28;20086;-79
2023/03/11 04:28:24;;;;;;;1.60;0.68;;;;;;;;;;5010454;28;20080;-78
2023/03/11 04:30:50;;;;;;;1.30;0.52;;;;;;;;;;5008001;28;20014;-79
2023/03/11 04:33:16;;;;;;;2.45;1.23;;;;;;;;;;5014681;28;20096;-78
2023/03/11 04:35:42;;;;;;;2.13;0.70;;;;;;;;;;5011826;28;20033;-77
2023/03/11 04:38:08;;;;;;;1.95;0.70;;;;;;;;;;5016060;28;20021;-78
2023/03/11 04:40:36;;;;;;;1.17;0.55;;;;;;;;;;5013630;28;20056;-79
2023/03/11 04:43:02;;;;;;;2.67;0.70;;;;;;;;;;5012082;28;20037;-78
2023/03/11 04:45:28;;;;;;;1.30;0.60;;;;;;;;;;5010442;28;20034;-79
2023/03/11 04:47:54;;;;;;;1.95;0.60;;;;;;;;;;5015810;28;20109;-79
2023/03/11 04:50:20;;;;;;;2.28;0.90;;;;;;;;;;5033159;28;20362;-79
2023/03/11 04:52:46;;;;;;;1.25;0.50;;;;;;;;;;5017247;28;20032;-77
2023/03/11 04:55:13;;;;;;;3.40;0.60;;;;;;;;;;5008571;28;20025;-78
2023/03/11 04:57:39;;;;;;;1.85;0.75;;;;;;;;;;5007600;28;20033;-78
2023/03/11 05:00:08;;;;;;;1.73;0.68;;;;;;;;;;5015929;28;20029;-80
2023/03/11 05:02:34;;;;;;;1.67;0.60;;;;;;;;;;5007492;28;20021;-79
2023/03/11 05:05:00;;;;;;;2.42;0.70;;;;;;;;;;5009586;28;20038;-79
2023/03/11 05:07:26;;;;;;;2.50;0.80;;;;;;;;;;5003644;28;20085;-79
2023/03/11 05:09:52;;;;;;;2.28;0.70;;;;;;;;;;5004174;28;20586;-79
2023/03/11 05:12:18;;;;;;;3.42;1.10;;;;;;;;;;4995636;28;20054;-78
2023/03/11 05:14:44;;;;;;;3.55;1.20;;;;;;;;;;4995254;28;20026;-79
2023/03/11 05:17:12;;;;;;;3.20;1.10;;;;;;;;;;5015274;28;20513;-79
2023/03/11 05:19:38;;;;;;;1.73;0.70;;;;;;;;;;5007311;28;20058;-78
2023/03/11 05:22:05;;;;;;;2.45;0.80;;;;;;;;;;5014977;28;20033;-78
2023/03/11 05:24:31;;;;;;;1.67;0.68;;;;;;;;;;4998851;28;20022;-78
2023/03/11 05:26:57;;;;;;;1.80;0.82;;;;;;;;;;5005067;28;20032;-79
2023/03/11 05:29:24;;;;;;;1.17;0.60;;;;;;;;;;5010538;28;20481;-78
2023/03/11 05:31:50;;;;;;;1.75;0.70;;;;;;;;;;5004145;28;20027;-78
2023/03/11 05:34:16;;;;;;;2.70;0.75;;;;;;;;;;4994368;28;20050;-80
2023/03/11 05:36:42;;;;;;;1.63;0.60;;;;;;;;;;5009086;28;20088;-79
2023/03/11 05:39:09;;;;;;;2.03;0.70;;;;;;;;;;5005096;28;20017;-80
2023/03/11 05:41:35;;;;;;;1.73;0.70;;;;;;;;;;5001394;28;20054;-79
2023/03/11 05:44:01;;;;;;;2.38;0.80;;;;;;;;;;5014659;28;20037;-80
2023/03/11 05:46:27;;;;;;;2.88;1.13;;;;;;;;;;5004083;28;20053;-79
2023/03/11 05:48:53;;;;;;;2.42;0.73;;;;;;;;;;4996034;28;20029;-79
2023/03/11 05:51:19;;;;;;;5.43;2.08;;;;;;;;;;5002553;28;20034;-78
2023/03/11 05:53:47;;;;;;;6.20;1.58;;;;;;;;;;5007119;28;20062;-79
2023/03/11 05:56:17;;;;;;;5.13;1.92;;;;;;;;;;5011097;28;20025;-79
2023/03/11 05:58:43;;;;;;;4.55;1.40;;;;;;;;;;5010356;28;20042;-79
2023/03/11 06:01:10;;;;;;;2.45;0.80;;;;;;;;;;5007299;28;20026;-80
2023/03/11 06:03:37;;;;;;;3.10;0.95;;;;;;;;;;4998227;28;20054;-79
2023/03/11 06:06:04;;;;;;;2.97;0.98;;;;;;;;;;5015651;28;20041;-80
2023/03/11 06:08:33;;;;;;;4.22;0.93;;;;;;;;;;5009112;28;20119;-79
2023/03/11 06:11:09;;;;;;;1.98;0.80;;;;;;;;;;5010063;28;20022;-79
2023/03/11 06:13:36;;;;;;;2.72;0.77;;;;;;;;;;4995060;28;20030;-79
2023/03/11 06:16:02;;;;;;;2.20;0.82;;;;;;;;;;5013480;28;20033;-81
2023/03/11 06:18:28;;;;;;;3.08;1.10;;;;;;;;;;5017111;28;20100;-80
2023/03/11 06:20:57;;;;;;;3.00;0.90;;;;;;;;;;5011826;28;20470;-80
2023/03/11 06:23:23;;;;;;;2.90;0.98;;;;;;;;;;5005263;28;20030;-81
2023/03/11 06:25:56;;;;;;;2.08;1.00;;;;;;;;;;5013254;28;20512;-81
2023/03/11 06:28:22;;;;;;;3.80;1.05;;;;;;;;;;5002783;28;20094;-80
2023/03/11 06:30:48;;;;;;;1.98;0.80;;;;;;;;;;5005888;28;20026;-80
2023/03/11 06:33:14;;;;;;;2.28;0.82;;;;;;;;;;5010758;28;20501;-79
2023/03/11 06:35:40;;;;;;;1.02;0.50;;;;;;;;;;5016814;28;20030;-81
2023/03/11 06:38:06;;;;;;;2.22;0.90;;;;;;;;;;5005180;28;20026;-81
2023/03/11 06:40:32;;;;;;;2.20;0.70;;;;;;;;;;5008274;28;21460;-80
2023/03/11 06:42:58;;;;;;;1.48;0.55;;;;;;;;;;5014197;28;20037;-80
2023/03/11 06:45:24;;;;;;;3.50;0.95;;;;;;;;;;5006473;28;20082;-81
2023/03/11 06:47:50;;;;;;;1.33;0.60;;;;;;;;;;5003070;28;20044;-79
2023/03/11 06:50:16;;;;;;;1.75;0.70;;;;;;;;;;5009415;28;20018;-80
2023/03/11 06:52:42;;;;;;;2.17;0.80;;;;;;;;;;5013756;28;20080;-80
2023/03/11 06:55:09;;;;;;;2.47;0.82;;;;;;;;;;5007355;28;20098;-80
2023/03/11 06:57:35;;;;;;;1.27;0.60;;;;;;;;;;5010077;28;20034;-80
2023/03/11 07:00:01;;;;;;;1.98;0.60;;;;;;;;;;5012817;28;20132;-79
2023/03/11 07:02:27;;;;;;;2.45;0.70;;;;;;;;;;5009540;28;20085;-79
2023/03/11 07:04:53;;;;;;;1.58;0.60;;;;;;;;;;5002718;28;20042;-80
2023/03/11 07:07:20;;;;;;;1.55;0.80;;;;;;;;;;5011581;28;20060;-79
2023/03/11 07:09:46;;;;;;;3.35;0.73;;;;;;;;;;4996459;28;20387;-80
2023/03/11 07:12:13;;;;;;;1.70;0.60;;;;;;;;;;4997255;28;20038;-81
2023/03/11 07:14:39;;;;;;;1.60;0.60;;;;;;;;;;5000179;28;20168;-79
2023/03/11 07:17:05;;;;;;;3.10;0.85;;;;;;;;;;5016461;28;20072;-80
2023/03/11 07:19:31;;;;;;;2.50;0.80;;;;;;;;;;5015609;28;20052;-81
2023/03/11 07:21:57;;;;;;;1.27;0.60;;;;;;;;;;5012640;28;20053;-79
2023/03/11 07:24:23;;;;;;;6.50;0.85;;;;;;;;;;4995682;28;20105;-80
2023/03/11 07:26:49;;;;;;;1.42;0.57;;;;;;;;;;5013020;28;20032;-80
2023/03/11 07:29:15;;;;;;;1.20;0.60;;;;;;;;;;5000789;28;20077;-79
2023/03/11 07:31:41;;;;;;;1.88;0.70;;;;;;;;;;5002960;28;20026;-81
2023/03/11 07:34:10;;;;;;;2.75;0.90;;;;;;;;;;5012640;28;20064;-80
2023/03/11 07:36:36;;;;;;;1.65;0.80;;;;;;;;;;5004914;28;20117;-80
2023/03/11 07:39:04;;;;;;;1.45;0.90;;;;;;;;;;4999837;28;20034;-78
2023/03/11 07:41:31;;;;;;;1.40;0.77;;;;;;;;;;5003690;28;20022;-82
2023/03/11 07:43:58;;;;;;;3.33;1.15;;;;;;;;;;5012193;28;20040;-80
2023/03/11 07:46:25;;;;;;;3.20;1.10;;;;;;;;;;5012080;28;20032;-79
2023/03/11 07:48:52;;;;;;;1.75;0.80;;;;;;;;;;5002473;28;20375;-79
2023/03/11 07:51:25;;;;;;;2.17;1.00;;;;;;;;;;5005876;28;20481;-79
2023/03/11 07:53:52;;;;;;;1.67;0.80;;;;;;;;;;5008870;28;20022;-82
2023/03/11 07:56:19;;;;;;;1.38;0.70;;;;;;;;;;5003971;28;20037;-80
2023/03/11 07:58:45;;;;;;;1.48;0.95;;;;;;;;;;5020733;28;20118;-79
2023/03/11 08:01:18;;;;;;;4.00;1.20;;;;;;;;;;5013647;28;20034;-80
2023/03/11 08:03:45;;;;;;;2.17;0.70;;;;;;;;;;5021320;28;20026;-79
2023/03/11 08:06:21;;;;;;;1.70;0.90;;;;;;;;;;5013105;28;20039;-79
2023/03/11 08:08:47;;;;;;;1.88;0.80;;;;;;;;;;5013212;28;20030;-80
2023/03/11 08:11:14;;;;;;;1.45;0.70;;;;;;;;;;5011876;28;20030;-79
2023/03/11 08:13:41;;;;;;;1.83;0.75;;;;;;;;;;4999751;28;20550;-80
2023/03/11 08:16:07;;;;;;;1.38;0.50;;;;;;;;;;5007111;28;20025;-78
2023/03/11 08:18:33;;;;;;;2.65;1.20;;;;;;;;;;5009572;28;22063;-78
2023/03/11 08:20:59;;;;;;;1.23;0.60;;;;;;;;;;5014235;28;20046;-78
2023/03/11 08:23:25;;;;;;;1.67;0.60;;;;;;;;;;4998764;28;20026;-79
2023/03/11 08:25:51;;;;;;;2.28;0.85;;;;;;;;;;5000901;28;20062;-80
2023/03/11 08:28:17;;;;;;;3.25;0.68;;;;;;;;;;5003230;28;20033;-79
2023/03/11 08:30:43;;;;;;;1.70;0.70;;;;;;;;;;5009483;28;20033;-77
2023/03/11 08:33:09;;;;;;;4.57;0.82;;;;;;;;;;5024012;28;20017;-80
2023/03/11 08:35:35;;;;;;;2.10;0.82;;;;;;;;;;5005471;28;20026;-80
2023/03/11 08:38:01;;;;;;;1.65;0.70;;;;;;;;;;5019224;28;20056;-78
2023/03/11 08:44:03;;;;;;;2.28;0.90;;;;;;;;;;5016499;28;20045;-79
2023/03/11 08:46:38;;;;;;;3.20;0.70;;;;;;;;;;5013711;28;20040;-78
2023/03/11 08:49:05;;;;;;;2.85;0.82;;;;;;;;;;5011533;28;20033;-77
2023/03/11 08:54:34;;;;;;;;;;;;;;;;;;5012452;28;20573;-78
2023/03/11 08:57:02;;;;;;;3.25;1.63;;;;;;;;;;5014988;28;19913;-79
2023/03/11 08:59:31;;;;;;;2.30;0.80;;;;;;;;;;5005771;28;20457;-80
2023/03/11 09:01:57;;;;;;;1.52;0.70;;;;;;;;;;5006119;28;20032;-79
2023/03/11 09:04:23;;;;;;;2.22;0.70;;;;;;;;;;4995739;28;20027;-79
2023/03/11 09:06:49;;;;;;;2.08;0.93;;;;;;;;;;5011568;28;20037;-79
2023/03/11 09:09:19;;;;;;;2.13;0.82;;;;;;;;;;4998319;28;20494;-78
2023/03/11 09:11:45;;;;;;;1.73;0.70;;;;;;;;;;4996510;28;20026;-78
2023/03/11 09:14:11;;;;;;;3.50;1.08;;;;;;;;;;4998287;28;20036;-78
2023/03/11 09:16:37;;;;;;;3.15;1.00;;;;;;;;;;4996270;28;20475;-78
2023/03/11 09:19:06;;;;;;;2.22;0.70;;;;;;;;;;4997748;28;20033;-78
2023/03/11 09:21:32;;;;;;;1.60;0.70;;;;;;;;;;5001740;28;20022;-80
2023/03/11 09:23:58;;;;;;;3.70;1.10;;;;;;;;;;5003634;28;20085;-78
2023/03/11 09:26:25;;;;;;;2.95;0.95;;;;;;;;;;5001666;28;20041;-78
2023/03/11 09:28:52;;;;;;;2.35;0.82;;;;;;;;;;5000751;28;20497;-79
2023/03/11 09:31:24;;;;;;;2.15;0.70;;;;;;;;;;4998085;28;20542;-79
2023/03/11 09:36:54;;;;;;;1.55;0.60;;;;;;;;;;5007875;28;20028;-78
2023/03/11 09:39:20;;;;;;;3.67;1.08;;;;;;;;;;5014205;28;20049;-81
2023/03/11 09:41:52;;;;;;;2.28;0.90;;;;;;;;;;5015752;28;20022;-80
2023/03/11 09:44:22;;;;;;;2.85;1.13;;;;;;;;;;5015326;28;20427;-79
2023/03/11 09:46:59;;;;;;;2.13;0.90;;;;;;;;;;5012539;28;20022;-80
2023/03/11 09:49:25;;;;;;;2.70;0.90;;;;;;;;;;5000927;28;20454;-80
2023/03/11 09:51:57;;;;;;;2.53;0.93;;;;;;;;;;4997013;28;20072;-79
2023/03/11 09:54:23;;;;;;;2.50;0.90;;;;;;;;;;4996774;28;20029;-79
2023/03/11 09:56:49;;;;;;;4.03;0.82;;;;;;;;;;4995141;28;20022;-79
2023/03/11 09:59:22;;;;;;;2.03;1.10;;;;;;;;;;4996196;28;20043;-79
2023/03/11 10:01:49;;;;;;;2.05;0.85;;;;;;;;;;4997329;28;20018;-79
2023/03/11 10:04:19;;;;;;;1.70;0.70;;;;;;;;;;4998463;28;20125;-78
2023/03/11 10:06:46;;;;;;;2.70;0.80;;;;;;;;;;5017864;28;20076;-79
2023/03/11 10:09:12;;;;;;;1.85;0.70;;;;;;;;;;5016298;28;20121;-80
2023/03/11 10:11:56;;;;;;;2.33;0.85;;;;;;;;;;5002878;28;20057;-78
2023/03/11 10:14:25;;;;;;;1.55;0.70;;;;;;;;;;4995790;28;20438;-79
2023/03/11 10:16:56;;;;;;;2.63;0.90;;;;;;;;;;4997088;28;20018;-79
2023/03/11 10:19:28;;;;;;;1.85;0.70;;;;;;;;;;5015125;28;20092;-79
2023/03/11 10:21:57;;;;;;;1.77;0.82;;;;;;;;;;5008903;28;20085;-79
2023/03/11 10:24:41;;;;;;;1.27;0.75;;;;;;;;;;4999939;28;20031;-80
2023/03/11 10:33:14;;;;;;;;;;;;;;;;;;5001132;28;20033;-79
2023/03/11 10:35:43;;;;;;;1.85;0.70;;;;;;;;;;4994115;28;20277;-78
2023/03/11 10:38:38;;;;;;;1.75;0.80;;;;;;;;;;4997920;28;20113;-78
2023/03/11 10:41:07;;;;;;;1.45;0.73;;;;;;;;;;4997970;28;20038;-79
2023/03/11 10:43:49;;;;;;;2.50;0.90;;;;;;;;;;4997967;28;20030;-79
2023/03/11 10:46:25;;;;;;;1.58;0.77;;;;;;;;;;5010616;28;20033;-79
2023/03/11 10:48:51;;;;;;;1.73;0.70;;;;;;;;;;4995975;28;20038;-81
2023/03/11 10:51:21;;;;;;;2.00;0.73;;;;;;;;;;4996812;28;20022;-79
2023/03/11 10:53:49;;;;;;;2.10;0.70;;;;;;;;;;5008330;28;20022;-79
2023/03/11 10:56:35;;;;;;;2.65;0.90;;;;;;;;;;5015688;28;20030;-82
2023/03/11 10:59:01;;;;;;;2.38;0.82;;;;;;;;;;5013890;28;20532;-80
2023/03/11 11:01:28;;;;;;;3.75;1.65;;;;;;;;;;5013771;28;20018;-82
2023/03/11 11:03:55;;;;;;;3.28;1.55;;;;;;;;;;5007345;28;20010;-80
2023/03/11 11:06:27;;;;;;;2.05;0.90;;;;;;;;;;5018943;28;20037;-81
2023/03/11 11:09:05;;;;;;;2.80;0.80;;;;;;;;;;5013153;28;20037;-80
2023/03/11 11:11:34;;;;;;;2.40;0.90;;;;;;;;;;5015821;28;20045;-81
2023/03/11 11:14:00;;;;;;;3.03;1.00;;;;;;;;;;5018147;28;20052;-80
2023/03/11 11:16:26;;;;;;;2.90;1.15;;;;;;;;;;5008495;28;20065;-79
2023/03/11 11:18:57;;;;;;;2.05;0.70;;;;;;;;;;5019275;28;20026;-79
2023/03/11 11:21:34;;;;;;;1.92;0.75;;;;;;;;;;5001507;28;20018;-80
2023/03/11 11:24:11;;;;;;;2.22;0.73;;;;;;;;;;5019585;28;20018;-80
2023/03/11 11:26:37;;;;;;;2.83;0.90;;;;;;;;;;5005741;28;20058;-79
2023/03/11 11:29:09;;;;;;;2.65;0.90;;;;;;;;;;5002039;28;20030;-81
2023/03/11 11:31:36;;;;;;;2.70;1.10;;;;;;;;;;5019377;28;20165;-81
2023/03/11 11:34:03;;;;;;;1.80;0.70;;;;;;;;;;5001209;28;20114;-79
2023/03/11 11:36:30;;;;;;;1.77;0.80;;;;;;;;;;4995277;28;20022;-80
2023/03/11 11:38:58;;;;;;;2.35;0.80;;;;;;;;;;5011462;28;20583;-77
2023/03/11 11:41:25;;;;;;;2.65;0.82;;;;;;;;;;5022909;28;20093;-78
2023/03/11 11:43:55;;;;;;;1.42;0.68;;;;;;;;;;5036279;28;20030;-78
2023/03/11 11:46:29;;;;;;;1.88;0.90;;;;;;;;;;5021706;28;20060;-82
2023/03/11 11:49:11;;;;;;;2.83;0.95;;;;;;;;;;5001224;28;20086;-80
2023/03/11 11:51:59;;;;;;;2.25;0.80;;;;;;;;;;5000263;28;20019;-80
2023/03/11 11:54:30;;;;;;;5.72;1.08;;;;;;;;;;5005562;28;20026;-81
2023/03/11 11:56:57;;;;;;;4.43;1.10;;;;;;;;;;5000521;28;20035;-80
2023/03/11 11:59:24;;;;;;;3.58;1.10;;;;;;;;;;5013812;28;20143;-79
2023/03/11 12:01:50;;;;;;;2.22;1.00;;;;;;;;;;5008346;28;20101;-80
2023/03/11 12:04:16;;;;;;;2.47;1.00;;;;;;;;;;5019344;28;20026;-79
2023/03/11 12:07:05;;;;;;;2.55;0.90;;;;;;;;;;5029238;28;20042;-81
2023/03/11 12:09:39;;;;;;;3.83;0.90;;;;;;;;;;5010572;28;20038;-81
2023/03/11 12:12:24;;;;;;;2.03;0.88;;;;;;;;;;5003909;28;20112;-81
2023/03/11 12:14:53;;;;;;;2.33;0.85;;;;;;;;;;5002363;28;20402;-80
2023/03/11 12:17:22;;;;;;;1.85;0.85;;;;;;;;;;5015206;28;20026;-80
2023/03/11 12:19:53;;;;;;;3.30;1.10;;;;;;;;;;5041844;28;20029;-80
2023/03/11 12:22:34;;;;;;;2.35;1.08;;;;;;;;;;5031781;28;20032;-80
2023/03/11 12:25:00;;;;;;;2.97;1.10;;;;;;;;;;5022370;28;20022;-80
2023/03/11 12:27:29;;;;;;;2.78;1.02;;;;;;;;;;5012627;28;20050;-79
2023/03/11 12:29:58;;;;;;;2.25;0.95;;;;;;;;;;5001410;28;20436;-81
2023/03/11 12:32:30;;;;;;;3.38;1.20;;;;;;;;;;5003082;28;20094;-81
2023/03/11 12:35:01;;;;;;;3.70;1.08;;;;;;;;;;5002890;28;20019;-80
2023/03/11 12:37:27;;;;;;;3.75;1.02;;;;;;;;;;5001151;28;20033;-80
2023/03/11 12:39:53;;;;;;;2.30;0.90;;;;;;;;;;4998955;28;20034;-80
2023/03/11 12:42:26;;;;;;;3.05;1.20;;;;;;;;;;5006369;28;20035;-81
2023/03/11 12:44:52;;;;;;;;;;;;;;;;;;5020324;28;20032;-81
2023/03/11 12:47:27;;;;;;;2.50;0.77;;;;;;;;;;5005830;28;19910;-80
2023/03/11 12:50:13;;;;;;;2.25;1.08;;;;;;;;;;5008490;28;20400;-80
2023/03/11 12:52:53;;;;;;;2.20;0.75;;;;;;;;;;5008678;28;20049;-80
2023/03/11 12:55:19;;;;;;;1.63;0.68;;;;;;;;;;5013016;28;20054;-80
2023/03/11 12:57:48;;;;;;;4.20;1.60;;;;;;;;;;5003282;28;20101;-79
2023/03/11 13:00:21;;;;;;;2.63;0.93;;;;;;;;;;5001108;28;20023;-80
2023/03/11 13:02:53;;;;;;;2.97;0.90;;;;;;;;;;5007893;28;20705;-80
2023/03/11 13:05:38;;;;;;;2.15;0.77;;;;;;;;;;5022371;28;20036;-80
2023/03/11 13:08:10;;;;;;;2.85;0.93;;;;;;;;;;5001294;28;20093;-81
2023/03/11 13:10:38;;;;;;;3.63;0.80;;;;;;;;;;5000514;28;20040;-80
2023/03/11 13:13:23;;;;;;;2.90;1.20;;;;;;;;;;5011660;28;20033;-78
2023/03/11 13:15:49;;;;;;;3.05;1.35;;;;;;;;;;5006467;28;20090;-80
2023/03/11 13:18:26;;;;;;;2.78;0.95;;;;;;;;;;5009032;28;20033;-81
2023/03/11 13:20:55;;;;;;;2.13;0.90;;;;;;;;;;5013250;28;20429;-80
2023/03/11 13:23:20;;;;;;;2.33;0.90;;;;;;;;;;5009806;28;20022;-81
2023/03/11 13:25:47;;;;;;;2.30;1.02;;;;;;;;;;5003286;28;20409;-80
2023/03/11 13:28:26;;;;;;;2.65;0.90;;;;;;;;;;5007640;28;20045;-80
2023/03/11 13:31:10;;;;;;;2.55;1.13;;;;;;;;;;5005564;28;20033;-81
2023/03/11 13:34:09;;;;;;;2.67;0.90;;;;;;;;;;5000226;28;20041;-81
2023/03/11 13:36:36;;;;;;;2.70;0.95;;;;;;;;;;4999613;28;20034;-79
2023/03/11 13:39:17;;;;;;;3.53;1.10;;;;;;;;;;5009233;28;20022;-80
2023/03/11 13:41:43;;;;;;;2.47;1.00;;;;;;;;;;5009064;28;20034;-81
2023/03/11 13:44:16;;;;;;;3.00;1.30;;;;;;;;;;5018225;28;20029;-79
2023/03/11 13:46:43;;;;;;;2.67;1.15;;;;;;;;;;5015558;28;20034;-80
2023/03/11 13:49:21;;;;;;;3.60;1.08;;;;;;;;;;4999120;28;20030;-80
2023/03/11 13:51:48;;;;;;;3.22;1.20;;;;;;;;;;4995796;28;20029;-82
2023/03/11 13:54:21;;;;;;;3.40;1.10;;;;;;;;;;5011790;28;20026;-81
2023/03/11 13:57:07;;;;;;;1.90;0.80;;;;;;;;;;5013901;28;21816;-80
2023/03/11 13:59:34;;;;;;;1.88;0.80;;;;;;;;;;4998130;28;20116;-80
2023/03/11 14:02:14;;;;;;;2.47;0.90;;;;;;;;;;5000734;28;20027;-79
2023/03/11 14:04:42;;;;;;;2.50;1.00;;;;;;;;;;5009541;28;20018;-81
2023/03/11 14:07:19;;;;;;;4.35;2.00;;;;;;;;;;5009533;28;20037;-81
2023/03/11 14:09:45;;;;;;;7.80;3.17;;;;;;;;;;5008527;28;20037;-80
2023/03/11 14:12:11;;;;;;;14.02;7.60;;;;;;;;;;5006395;28;20017;-80
2023/03/11 14:14:56;;;;;;;8.82;3.47;;;;;;;;;;5003097;28;20125;-81
2023/03/11 14:17:22;;;;;;;7.75;3.30;;;;;;;;;;5009130;28;20041;-80
2023/03/11 14:20:03;;;;;;;4.88;2.40;;;;;;;;;;5021902;28;20018;-81
2023/03/11 14:22:30;;;;;;;4.57;1.58;;;;;;;;;;5019113;28;20022;-80
2023/03/11 14:24:57;;;;;;;2.88;1.08;;;;;;;;;;5014481;28;20038;-80
2023/03/11 14:27:23;;;;;;;3.67;2.13;;;;;;;;;;5004635;28;20020;-80
2023/03/11 14:29:49;;;;;;;3.15;1.10;;;;;;;;;;5018310;28;20033;-81
2023/03/11 14:32:27;;;;;;;2.70;1.00;;;;;;;;;;5005641;28;20018;-78
2023/03/11 14:34:53;;;;;;;4.63;1.10;;;;;;;;;;5004979;28;20037;-80
2023/03/11 14:37:22;;;;;;;2.50;0.93;;;;;;;;;;5000987;28;20026;-80
2023/03/11 14:39:48;;;;;;;3.60;1.00;;;;;;;;;;5000036;28;20026;-81
2023/03/11 14:42:37;;;;;;;2.03;0.85;;;;;;;;;;5013217;28;20475;-79
2023/03/11 14:45:06;;;;;;;2.08;0.85;;;;;;;;;;5009006;28;20049;-80
2023/03/11 14:47:32;;;;;;;2.47;1.00;;;;;;;;;;5006046;28;20024;-81
2023/03/11 14:49:59;;;;;;;2.33;0.88;;;;;;;;;;5018074;28;20490;-79
2023/03/11 14:52:31;;;;;;;2.63;0.88;;;;;;;;;;5012671;28;20056;-80
2023/03/11 14:54:58;;;;;;;2.33;0.68;;;;;;;;;;5018868;28;20026;-80
2023/03/11 14:57:32;;;;;;;1.98;0.80;;;;;;;;;;5016154;28;20015;-79
2023/03/11 14:59:59;;;;;;;1.90;0.90;;;;;;;;;;5010714;28;20038;-79
2023/03/11 15:02:33;;;;;;;2.25;0.77;;;;;;;;;;5018453;28;20085;-80
2023/03/11 15:05:03;;;;;;;1.83;0.90;;;;;;;;;;4998599;28;20038;-81
2023/03/11 15:07:29;;;;;;;3.42;1.10;;;;;;;;;;5001202;28;20026;-79
2023/03/11 15:09:55;;;;;;;3.28;1.67;;;;;;;;;;5002124;28;20117;-80